Rowesville, SC (29133)

9:43 AM EST on December 04, 2016 (GMT -0500)
Orangeburg Municipal | | Change Station

Elev 197 ft 33.46 °N, 80.86 °W | Updated 50 minutes ago

Overcast
Overcast
49 °F
Feels Like 49 °F
N
7
Wind Variable Wind from ENE

Today
High -- | Low -- °F
--% Chance of Precip.
Yesterday
High -- | Low -- °F
Precip. -- in
Pressure 30.23 in
Visibility 10.0 miles
Clouds Overcast 5500 ft
Dew Point 35 °F
Humidity 59%
Rainfall 0.00 in
Snow Depth Not available.
7:12 AM 5:15 PM
Waxing Crescent, 23% visible
METAR KOGB 041353Z AUTO 06006KT 10SM OVC055 09/02 A3023 RMK AO2 SLP236 T00940017
Pressure 30.23 in
Visibility 10.0 miles
Clouds Overcast 5500 ft
Dew Point 35 °F
Humidity 59%
Rainfall 0.00 in
Snow Depth Not available.
7:12 AM 5:15 PM
Waxing Crescent, 23% visible
METAR KOGB 041353Z AUTO 06006KT 10SM OVC055 09/02 A3023 RMK AO2 SLP236 T00940017

10-Day Weather Forecast

Almanac

Astronomy

Dec. 04, 2016 Rise Set
Actual Time
Civil Twilight
Nautical Twilight
Astronomical Twilight
Moon
Length of Visible Light
Length of Day
Tomorrow will be .
, % of the Moon is Illuminated

Today's Extremes

State Highs State Lows

Community

WunderPhotos

Upload Photos

1,955,602 photos uploaded!

WunderBlog® & News

Nearby

Air Quality

  Air Quality AQ Index Pollutant
Not available.

Snow Depth

Station Depth Elevation

Earthquake Activity

City Distance Mag. Time & Date
Minimum magnitude displayed is 2.5.

Coastal Water Temperatures

Place Temperature

Stations

Nearby Weather Stations

Station Location Temp. Windchill Dew Point Humidity Wind Precip. Elev Updated Type
                   

Watches & Warnings

There are currently no watches in effect.